createdAt,value
2018-05-15T00:00:44.689Z,15.80
2018-05-15T00:03:48.028Z,15.75
2018-05-15T00:06:51.332Z,15.66
2018-05-15T00:09:55.421Z,15.66
2018-05-15T00:12:58.729Z,15.69
2018-05-15T00:16:02.058Z,15.59
2018-05-15T00:19:05.373Z,15.55
2018-05-15T00:22:08.688Z,15.53
2018-05-15T00:25:11.954Z,15.50
2018-05-15T00:28:15.303Z,15.56
2018-05-15T00:31:18.621Z,15.50
2018-05-15T00:34:22.708Z,15.47
2018-05-15T00:37:26.021Z,15.43
2018-05-15T00:40:30.113Z,15.36
2018-05-15T00:43:33.420Z,15.27
2018-05-15T00:46:36.738Z,15.20
2018-05-15T00:49:40.821Z,15.13
2018-05-15T00:52:44.149Z,15.07
2018-05-15T00:55:47.461Z,15.02
2018-05-15T00:58:50.772Z,14.93
2018-05-15T01:01:54.081Z,14.88
2018-05-15T01:04:57.419Z,14.90
2018-05-15T01:08:00.729Z,14.87
2018-05-15T01:11:04.049Z,14.88
2018-05-15T01:14:07.357Z,14.82
2018-05-15T01:17:10.668Z,14.76
2018-05-15T01:20:13.977Z,14.73
2018-05-15T01:23:18.065Z,14.66
2018-05-15T01:26:21.372Z,14.60
2018-05-15T01:29:24.692Z,14.60
2018-05-15T01:32:28.021Z,14.64
2018-05-15T01:35:32.091Z,14.59
2018-05-15T01:38:35.369Z,14.50
2018-05-15T01:41:38.698Z,14.51
2018-05-15T01:44:42.026Z,14.49
2018-05-15T01:47:46.101Z,14.46
2018-05-15T01:50:49.408Z,14.42
2018-05-15T01:53:52.720Z,14.38
2018-05-15T01:56:56.045Z,14.34
2018-05-15T02:00:00.147Z,14.29
2018-05-15T02:03:04.221Z,14.22
2018-05-15T02:06:07.541Z,14.17
2018-05-15T02:09:10.849Z,14.16
2018-05-15T02:12:14.169Z,14.13
2018-05-15T02:15:17.473Z,14.13
2018-05-15T02:18:20.792Z,14.15
2018-05-15T02:21:24.118Z,14.21
2018-05-15T02:24:27.433Z,14.19
2018-05-15T02:27:30.757Z,14.16
2018-05-15T02:30:34.123Z,14.14
2018-05-15T02:33:37.394Z,14.10
2018-05-15T02:36:40.714Z,14.08
2018-05-15T02:39:44.029Z,14.03
2018-05-15T02:42:48.109Z,13.98
2018-05-15T02:45:51.429Z,13.89
2018-05-15T02:48:55.529Z,13.84
2018-05-15T02:51:58.844Z,13.81
2018-05-15T02:55:02.923Z,13.78
2018-05-15T02:58:06.246Z,13.74
2018-05-15T03:01:09.553Z,13.70
2018-05-15T03:04:13.649Z,13.66
2018-05-15T03:07:16.958Z,13.64
2018-05-15T03:10:21.046Z,13.61
2018-05-15T03:13:25.120Z,13.57
2018-05-15T03:16:28.437Z,13.53
2018-05-15T03:19:31.741Z,13.50
2018-05-15T03:22:35.057Z,13.48
2018-05-15T03:25:38.368Z,13.44
2018-05-15T03:28:41.689Z,13.40
2018-05-15T03:31:44.989Z,13.38
2018-05-15T03:34:48.356Z,13.35
2018-05-15T03:37:51.654Z,13.32
2018-05-15T03:40:54.961Z,13.28
2018-05-15T03:43:59.048Z,13.24
2018-05-15T03:47:02.372Z,13.20
2018-05-15T03:50:06.457Z,13.16
2018-05-15T03:53:09.764Z,13.15
2018-05-15T03:56:13.090Z,13.11
2018-05-15T03:59:17.158Z,13.08
2018-05-15T04:02:39.002Z,13.10
2018-05-15T04:06:00.053Z,13.11
2018-05-15T04:09:03.368Z,13.16
2018-05-15T04:12:06.673Z,13.17
2018-05-15T04:15:09.989Z,13.17
2018-05-15T04:18:13.297Z,13.19
2018-05-15T04:21:16.634Z,13.21
2018-05-15T04:24:19.958Z,13.26
2018-05-15T04:27:23.273Z,13.32
2018-05-15T04:30:26.593Z,13.39
2018-05-15T04:33:29.921Z,13.46
2018-05-15T04:36:33.224Z,13.59
2018-05-15T04:39:36.566Z,13.66
2018-05-15T04:42:40.641Z,13.71
2018-05-15T04:45:43.964Z,13.79
2018-05-15T04:48:48.037Z,13.87
2018-05-15T04:51:52.117Z,14.02
2018-05-15T04:54:55.433Z,14.09
2018-05-15T04:57:59.521Z,14.21
2018-05-15T05:01:02.832Z,14.33
2018-05-15T05:04:06.170Z,14.40
2018-05-15T05:07:09.481Z,14.55
2018-05-15T05:10:12.798Z,14.60
2018-05-15T05:13:16.118Z,14.69
2018-05-15T05:16:19.417Z,14.82
2018-05-15T05:19:22.729Z,15.06
2018-05-15T05:22:26.801Z,15.19
2018-05-15T05:25:30.117Z,15.33
2018-05-15T05:28:33.418Z,15.40
2018-05-15T05:31:36.736Z,15.38
2018-05-15T05:34:40.049Z,15.47
2018-05-15T05:37:43.370Z,15.57
2018-05-15T05:40:46.699Z,15.61
2018-05-15T05:43:50.009Z,15.68
2018-05-15T05:46:54.101Z,15.76
2018-05-15T05:49:57.422Z,15.88
2018-05-15T05:53:01.522Z,16.07
2018-05-15T05:56:04.824Z,16.18
2018-05-15T05:59:08.146Z,16.23
2018-05-15T06:02:12.226Z,16.29
2018-05-15T06:05:15.568Z,16.37
2018-05-15T06:08:19.453Z,16.43
2018-05-15T06:11:23.559Z,16.48
2018-05-15T06:14:26.972Z,16.55
2018-05-15T06:17:30.197Z,16.60
2018-05-15T06:20:33.532Z,16.78
2018-05-15T06:23:36.844Z,16.90
2018-05-15T06:26:40.166Z,16.95
2018-05-15T06:29:44.235Z,17.05
2018-05-15T06:32:47.553Z,17.10
2018-05-15T06:35:50.877Z,17.24
2018-05-15T06:38:54.180Z,17.32
2018-05-15T06:41:57.528Z,17.43
2018-05-15T06:45:00.828Z,17.59
2018-05-15T06:48:04.144Z,17.66
2018-05-15T06:51:08.216Z,17.82
2018-05-15T06:54:11.551Z,18.03
2018-05-15T06:57:15.643Z,18.12
2018-05-15T07:00:18.962Z,18.19
2018-05-15T07:03:22.270Z,18.29
2018-05-15T07:06:26.358Z,18.49
2018-05-15T07:09:29.673Z,18.59
2018-05-15T07:12:33.752Z,18.62
2018-05-15T07:15:37.080Z,18.76
2018-05-15T07:18:40.385Z,18.84
2018-05-15T07:21:44.457Z,19.00
2018-05-15T07:24:47.760Z,19.05
2018-05-15T07:27:51.105Z,19.16
2018-05-15T07:30:54.424Z,19.31
2018-05-15T07:33:57.745Z,19.46
2018-05-15T07:37:01.061Z,19.60
2018-05-15T07:40:04.402Z,19.71
2018-05-15T07:43:07.709Z,19.86
2018-05-15T07:46:11.030Z,19.89
2018-05-15T07:49:14.342Z,19.87
2018-05-15T07:52:17.669Z,19.86
2018-05-15T07:55:21.757Z,19.91
2018-05-15T07:58:25.062Z,20.01
2018-05-15T08:01:28.380Z,20.06
2018-05-15T08:04:32.497Z,20.17
2018-05-15T08:07:35.784Z,20.22
2018-05-15T08:10:39.106Z,20.33
2018-05-15T08:13:42.425Z,20.46
2018-05-15T08:16:46.509Z,20.66
2018-05-15T08:19:49.829Z,20.78
2018-05-15T08:22:53.133Z,20.76
2018-05-15T08:25:56.445Z,20.76
2018-05-15T08:28:59.753Z,20.92
2018-05-15T08:32:03.080Z,20.99
2018-05-15T08:35:07.159Z,21.11
2018-05-15T08:38:10.469Z,21.27
2018-05-15T08:41:13.789Z,21.37
2018-05-15T08:44:17.873Z,21.48
2018-05-15T08:47:21.169Z,21.64
2018-05-15T08:50:24.485Z,21.80
2018-05-15T08:53:28.562Z,21.87
2018-05-15T08:56:31.872Z,21.92
2018-05-15T08:59:35.199Z,22.01
2018-05-15T09:02:39.296Z,22.14
2018-05-15T09:05:42.601Z,22.21
2018-05-15T09:08:46.677Z,22.31
2018-05-15T09:11:49.982Z,22.41
2018-05-15T09:14:53.292Z,22.47
2018-05-15T09:17:56.622Z,22.59
2018-05-15T09:20:59.937Z,22.65
2018-05-15T09:24:03.249Z,22.73
2018-05-15T09:27:06.554Z,22.74
2018-05-15T09:30:09.870Z,22.74
2018-05-15T09:33:13.168Z,22.82
2018-05-15T09:36:16.478Z,22.79
2018-05-15T09:39:20.557Z,22.58
2018-05-15T09:42:23.865Z,22.53
2018-05-15T09:45:27.168Z,22.60
2018-05-15T09:48:30.510Z,22.68
2018-05-15T09:51:33.825Z,22.66
2018-05-15T09:54:37.141Z,22.74
2018-05-15T09:57:40.441Z,22.92
2018-05-15T10:00:43.761Z,22.96
2018-05-15T10:03:47.071Z,22.94
2018-05-15T10:06:51.173Z,22.90
2018-05-15T10:09:54.481Z,22.82
2018-05-15T10:12:58.556Z,22.95
2018-05-15T10:16:01.865Z,23.05
2018-05-15T10:19:05.187Z,23.09
2018-05-15T10:22:09.257Z,23.17
2018-05-15T10:25:12.565Z,23.29
2018-05-15T10:28:15.883Z,23.37
2018-05-15T10:31:19.197Z,23.46
2018-05-15T10:34:23.264Z,23.59
2018-05-15T10:37:26.597Z,23.68
2018-05-15T10:40:30.676Z,23.73
2018-05-15T10:43:34.017Z,23.59
2018-05-15T10:46:38.091Z,23.50
2018-05-15T10:49:41.409Z,23.52
2018-05-15T10:52:44.717Z,23.57
2018-05-15T10:55:48.039Z,23.55
2018-05-15T10:58:51.353Z,23.56
2018-05-15T11:01:54.651Z,23.53
2018-05-15T11:04:57.987Z,23.63
2018-05-15T11:08:01.294Z,23.68
2018-05-15T11:11:04.610Z,23.74
2018-05-15T11:14:08.698Z,23.77
2018-05-15T11:17:12.013Z,23.75
2018-05-15T11:20:33.665Z,23.65
2018-05-15T11:23:54.665Z,23.66
2018-05-15T11:26:58.745Z,23.60
2018-05-15T11:30:02.070Z,23.50
2018-05-15T11:33:06.156Z,23.57
2018-05-15T11:36:09.472Z,23.57
2018-05-15T11:39:13.571Z,23.67
2018-05-15T11:42:16.881Z,23.77
2018-05-15T11:45:20.966Z,23.80
2018-05-15T11:48:24.764Z,23.82
2018-05-15T11:51:28.419Z,23.88
2018-05-15T11:54:30.922Z,23.89
2018-05-15T11:57:34.276Z,23.97
2018-05-15T12:00:38.366Z,23.94
2018-05-15T12:03:41.748Z,23.89
2018-05-15T12:06:45.015Z,23.85
2018-05-15T12:09:48.352Z,23.90
2018-05-15T12:12:51.703Z,23.94
2018-05-15T12:15:55.009Z,24.01
2018-05-15T12:18:58.313Z,24.05
2018-05-15T12:22:02.397Z,24.19
2018-05-15T12:25:06.477Z,24.24
2018-05-15T12:28:09.847Z,24.24
2018-05-15T12:31:13.880Z,24.26
2018-05-15T12:34:17.197Z,24.30
2018-05-15T12:37:20.509Z,24.35
2018-05-15T12:40:23.829Z,24.45
2018-05-15T12:43:27.137Z,24.47
2018-05-15T12:46:30.451Z,24.48
2018-05-15T12:49:34.549Z,24.59
2018-05-15T12:52:37.852Z,24.66
2018-05-15T12:55:41.174Z,24.70
2018-05-15T12:58:44.504Z,24.77
2018-05-15T13:01:48.613Z,24.83
2018-05-15T13:04:51.930Z,24.88
2018-05-15T13:07:56.018Z,24.96
2018-05-15T13:10:59.325Z,25.00
2018-05-15T13:14:02.651Z,24.98
2018-05-15T13:17:05.961Z,24.97
2018-05-15T13:20:09.279Z,25.01
2018-05-15T13:23:12.594Z,24.98
2018-05-15T13:26:15.908Z,24.91
2018-05-15T13:29:19.985Z,24.92
2018-05-15T13:32:23.312Z,24.95
2018-05-15T13:35:27.504Z,25.03
2018-05-15T13:38:30.725Z,25.12
2018-05-15T13:41:34.046Z,25.12
2018-05-15T13:44:37.373Z,25.14
2018-05-15T13:47:40.698Z,25.18
2018-05-15T13:50:44.008Z,25.26
2018-05-15T13:53:47.336Z,25.27
2018-05-15T13:56:50.641Z,25.29
2018-05-15T13:59:53.967Z,25.27
2018-05-15T14:02:57.295Z,25.25
2018-05-15T14:06:00.620Z,25.24
2018-05-15T14:09:03.936Z,25.26
2018-05-15T14:12:07.265Z,25.19
2018-05-15T14:15:10.917Z,25.26
2018-05-15T14:18:15.024Z,25.34
2018-05-15T14:21:18.341Z,25.21
2018-05-15T14:24:21.674Z,25.12
2018-05-15T14:27:24.984Z,25.12
2018-05-15T14:30:28.441Z,25.26
2018-05-15T14:33:31.741Z,25.39
2018-05-15T14:36:35.110Z,25.51
2018-05-15T14:39:39.186Z,25.52
2018-05-15T14:43:00.194Z,25.62
2018-05-15T14:46:03.462Z,25.73
2018-05-15T14:49:06.908Z,25.74
2018-05-15T14:52:10.626Z,25.68
2018-05-15T14:55:13.990Z,25.63
2018-05-15T14:58:18.121Z,25.57
2018-05-15T15:01:21.469Z,25.71
2018-05-15T15:04:24.778Z,25.73
2018-05-15T15:07:28.093Z,25.78
2018-05-15T15:10:31.422Z,25.86
2018-05-15T15:13:35.647Z,25.98
2018-05-15T15:16:39.760Z,26.33
2018-05-15T15:19:43.841Z,26.79
2018-05-15T15:22:47.233Z,27.21
2018-05-15T15:25:50.545Z,27.48
2018-05-15T15:28:53.865Z,27.67
2018-05-15T15:31:57.193Z,27.68
2018-05-15T15:35:00.505Z,27.69
2018-05-15T15:38:03.811Z,27.62
2018-05-15T15:41:07.134Z,27.52
2018-05-15T15:44:10.449Z,27.34
2018-05-15T15:47:14.539Z,27.32
2018-05-15T15:50:17.978Z,27.41
2018-05-15T15:53:21.202Z,27.42
2018-05-15T15:56:24.537Z,27.29
2018-05-15T15:59:28.590Z,27.27
2018-05-15T16:02:31.897Z,27.10
2018-05-15T16:05:35.224Z,26.94
2018-05-15T16:08:38.562Z,26.77
2018-05-15T16:11:42.638Z,26.64
2018-05-15T16:14:45.966Z,26.44
2018-05-15T16:17:50.039Z,25.99
2018-05-15T16:20:53.348Z,25.69
2018-05-15T16:23:56.654Z,25.44
2018-05-15T16:26:59.981Z,25.19
2018-05-15T16:30:04.048Z,24.92
2018-05-15T16:33:07.355Z,24.62
2018-05-15T16:36:10.657Z,24.43
2018-05-15T16:39:13.985Z,24.34
2018-05-15T16:42:18.056Z,24.33
2018-05-15T16:45:21.385Z,24.24
2018-05-15T16:48:25.493Z,24.18
2018-05-15T16:51:28.813Z,24.04
2018-05-15T16:54:32.880Z,23.94
2018-05-15T16:57:36.217Z,23.86
2018-05-15T17:00:40.289Z,23.76
2018-05-15T17:03:43.606Z,23.71
2018-05-15T17:06:46.921Z,23.66
2018-05-15T17:09:51.026Z,23.67
2018-05-15T17:12:54.325Z,23.65
2018-05-15T17:15:58.409Z,23.61
2018-05-15T17:19:01.709Z,23.60
2018-05-15T17:22:05.017Z,23.55
2018-05-15T17:25:08.321Z,23.46
2018-05-15T17:28:11.641Z,23.51
2018-05-15T17:31:16.863Z,23.65
2018-05-15T17:34:20.181Z,23.69
2018-05-15T17:37:24.252Z,23.70
2018-05-15T17:40:27.565Z,23.69
2018-05-15T17:43:30.866Z,23.70
2018-05-15T17:46:34.957Z,23.61
2018-05-15T17:49:38.262Z,23.52
2018-05-15T17:52:41.590Z,23.45
2018-05-15T17:55:44.904Z,23.41
2018-05-15T17:58:48.225Z,23.30
2018-05-15T18:01:51.775Z,23.23
2018-05-15T18:04:55.872Z,23.23
2018-05-15T18:07:59.953Z,23.19
2018-05-15T18:11:03.273Z,23.15
2018-05-15T18:14:06.604Z,23.03
2018-05-15T18:17:09.921Z,22.97
2018-05-15T18:20:13.245Z,22.85
2018-05-15T18:23:16.544Z,22.79
2018-05-15T18:26:19.850Z,22.67
2018-05-15T18:29:23.156Z,22.61
2018-05-15T18:32:26.457Z,22.55
2018-05-15T18:35:29.761Z,22.44
2018-05-15T18:38:33.058Z,22.32
2018-05-15T18:41:36.365Z,22.30
2018-05-15T18:44:39.673Z,22.21
2018-05-15T18:47:43.753Z,22.12
2018-05-15T18:50:47.053Z,22.07
2018-05-15T18:53:50.361Z,22.03
2018-05-15T18:56:53.693Z,21.98
2018-05-15T18:59:57.001Z,21.89
2018-05-15T19:03:00.344Z,21.87
2018-05-15T19:06:03.640Z,21.76
2018-05-15T19:09:06.966Z,21.73
2018-05-15T19:12:10.273Z,21.71
2018-05-15T19:15:13.581Z,21.64
2018-05-15T19:18:16.889Z,21.68
2018-05-15T19:21:20.232Z,21.64
2018-05-15T19:24:23.533Z,21.58
2018-05-15T19:27:27.625Z,21.58
2018-05-15T19:30:31.062Z,21.56
2018-05-15T19:33:40.347Z,21.56
2018-05-15T19:36:49.085Z,21.51
2018-05-15T19:40:16.888Z,21.40
2018-05-15T19:43:20.985Z,21.21
2018-05-15T19:46:24.281Z,21.07
2018-05-15T19:49:27.609Z,21.02
2018-05-15T19:52:30.914Z,20.89
2018-05-15T19:55:34.241Z,20.79
2018-05-15T19:58:37.557Z,20.78
2018-05-15T20:01:40.854Z,20.73
2018-05-15T20:04:44.953Z,20.76
2018-05-15T20:07:48.265Z,20.67
2018-05-15T20:10:51.571Z,20.59
2018-05-15T20:13:54.906Z,20.61
2018-05-15T20:16:58.213Z,20.55
2018-05-15T20:20:01.526Z,20.52
2018-05-15T20:23:05.601Z,20.50
2018-05-15T20:26:08.918Z,20.40
2018-05-15T20:29:12.298Z,20.29
2018-05-15T20:32:15.552Z,20.19
2018-05-15T20:35:18.857Z,20.09
2018-05-15T20:38:22.164Z,20.01
2018-05-15T20:41:26.225Z,19.94
2018-05-15T20:44:29.533Z,19.86
2018-05-15T20:47:32.852Z,19.76
2018-05-15T20:50:36.160Z,19.71
2018-05-15T20:53:39.473Z,19.72
2018-05-15T20:56:43.542Z,19.66
2018-05-15T20:59:46.865Z,19.57
2018-05-15T21:02:50.175Z,19.52
2018-05-15T21:05:54.277Z,19.45
2018-05-15T21:08:57.577Z,19.38
2018-05-15T21:12:00.894Z,19.29
2018-05-15T21:15:05.046Z,19.21
2018-05-15T21:18:08.295Z,19.11
2018-05-15T21:21:12.364Z,19.01
2018-05-15T21:24:15.672Z,18.93
2018-05-15T21:27:18.989Z,18.84
2018-05-15T21:30:22.296Z,18.76
2018-05-15T21:33:26.373Z,18.68
2018-05-15T21:36:29.674Z,18.63
2018-05-15T21:39:32.993Z,18.57
2018-05-15T21:42:36.302Z,18.51
2018-05-15T21:45:40.385Z,18.46
2018-05-15T21:48:43.710Z,18.49
2018-05-15T21:51:47.777Z,18.46
2018-05-15T21:54:51.086Z,18.44
2018-05-15T21:57:54.398Z,18.43
2018-05-15T22:00:57.723Z,18.37
2018-05-15T22:04:01.785Z,18.30
2018-05-15T22:07:05.097Z,18.21
2018-05-15T22:10:08.413Z,18.13
2018-05-15T22:13:29.471Z,18.04
2018-05-15T22:16:50.501Z,17.98
2018-05-15T22:20:11.453Z,17.88
2018-05-15T22:23:13.965Z,17.76
2018-05-15T22:26:17.261Z,17.70
2018-05-15T22:29:20.593Z,17.67
2018-05-15T22:32:23.898Z,17.64
2018-05-15T22:35:27.208Z,17.60
2018-05-15T22:38:30.521Z,17.55
2018-05-15T22:41:34.656Z,17.54
2018-05-15T22:44:38.688Z,17.59
2018-05-15T22:47:42.018Z,17.66
2018-05-15T22:50:45.322Z,17.73
2018-05-15T22:53:48.651Z,17.77
2018-05-15T22:56:51.973Z,17.76
2018-05-15T22:59:55.273Z,17.75
2018-05-15T23:02:58.581Z,17.72
2018-05-15T23:06:01.902Z,17.69
2018-05-15T23:09:05.204Z,17.66
2018-05-15T23:12:08.509Z,17.64
2018-05-15T23:15:12.594Z,17.62
2018-05-15T23:18:15.917Z,17.59
2018-05-15T23:21:19.217Z,17.57
2018-05-15T23:24:23.290Z,17.52
2018-05-15T23:27:26.609Z,17.46
2018-05-15T23:30:29.909Z,17.41
2018-05-15T23:33:33.218Z,17.38
2018-05-15T23:36:37.285Z,17.34
2018-05-15T23:39:40.593Z,17.32
2018-05-15T23:42:43.893Z,17.30
2018-05-15T23:45:47.223Z,17.23
2018-05-15T23:48:51.288Z,17.16
2018-05-15T23:51:54.592Z,17.08
2018-05-15T23:54:57.896Z,17.04
2018-05-15T23:58:01.214Z,17.01
